sensor_id;sensor_type;location;lat;lon;timestamp;temperature;humidity
53752;DHT22;41095;53.090;6.692;2022-08-03T00:01:32;19.40;99.90
53752;DHT22;41095;53.090;6.692;2022-08-03T00:03:58;19.40;99.90
53752;DHT22;41095;53.090;6.692;2022-08-03T00:06:24;19.30;99.90
53752;DHT22;41095;53.090;6.692;2022-08-03T00:08:50;19.30;99.90
53752;DHT22;41095;53.090;6.692;2022-08-03T00:11:15;19.30;99.90
53752;DHT22;41095;53.090;6.692;2022-08-03T00:13:41;19.30;99.90
53752;DHT22;41095;53.090;6.692;2022-08-03T00:16:07;19.30;99.90
53752;DHT22;41095;53.090;6.692;2022-08-03T00:18:33;19.20;99.90
53752;DHT22;41095;53.090;6.692;2022-08-03T00:20:58;19.20;99.90
53752;DHT22;41095;53.090;6.692;2022-08-03T00:23:24;19.20;99.90
53752;DHT22;41095;53.090;6.692;2022-08-03T00:25:50;19.20;99.90
53752;DHT22;41095;53.090;6.692;2022-08-03T00:28:16;19.20;99.90
53752;DHT22;41095;53.090;6.692;2022-08-03T00:30:41;19.20;99.90
53752;DHT22;41095;53.090;6.692;2022-08-03T00:33:07;19.10;99.90
53752;DHT22;41095;53.090;6.692;2022-08-03T00:35:34;19.10;99.90
53752;DHT22;41095;53.090;6.692;2022-08-03T00:38:00;19.10;99.90
53752;DHT22;41095;53.090;6.692;2022-08-03T00:40:26;19.10;99.90
53752;DHT22;41095;53.090;6.692;2022-08-03T00:42:57;19.10;99.90
53752;DHT22;41095;53.090;6.692;2022-08-03T00:45:29;19.10;99.90
53752;DHT22;41095;53.090;6.692;2022-08-03T00:47:55;19.10;99.90
53752;DHT22;41095;53.090;6.692;2022-08-03T00:50:24;19.00;99.90
53752;DHT22;41095;53.090;6.692;2022-08-03T00:52:55;19.00;99.90
53752;DHT22;41095;53.090;6.692;2022-08-03T00:55:21;19.00;99.90
53752;DHT22;41095;53.090;6.692;2022-08-03T00:57:47;19.00;99.90
53752;DHT22;41095;53.090;6.692;2022-08-03T01:00:16;18.90;99.90
53752;DHT22;41095;53.090;6.692;2022-08-03T01:02:42;18.90;99.90
53752;DHT22;41095;53.090;6.692;2022-08-03T01:05:08;18.90;99.90
53752;DHT22;41095;53.090;6.692;2022-08-03T01:16:09;18.80;99.90
53752;DHT22;41095;53.090;6.692;2022-08-03T01:21:20;18.80;99.90
53752;DHT22;41095;53.090;6.692;2022-08-03T01:23:58;18.70;99.90
53752;DHT22;41095;53.090;6.692;2022-08-03T01:29:59;18.70;99.90
53752;DHT22;41095;53.090;6.692;2022-08-03T01:32:47;18.70;99.90
53752;DHT22;41095;53.090;6.692;2022-08-03T01:35:23;18.70;99.90
53752;DHT22;41095;53.090;6.692;2022-08-03T01:37:57;18.70;99.90
53752;DHT22;41095;53.090;6.692;2022-08-03T01:40:26;18.60;99.90
53752;DHT22;41095;53.090;6.692;2022-08-03T01:42:58;18.60;99.90
53752;DHT22;41095;53.090;6.692;2022-08-03T01:45:26;18.60;99.90
53752;DHT22;41095;53.090;6.692;2022-08-03T01:47:53;18.50;99.90
53752;DHT22;41095;53.090;6.692;2022-08-03T01:50:25;18.50;99.90
53752;DHT22;41095;53.090;6.692;2022-08-03T01:52:53;18.50;99.90
53752;DHT22;41095;53.090;6.692;2022-08-03T01:55:21;18.50;99.90
53752;DHT22;41095;53.090;6.692;2022-08-03T01:57:48;18.50;99.90
53752;DHT22;41095;53.090;6.692;2022-08-03T02:00:15;17.70;99.90
53752;DHT22;41095;53.090;6.692;2022-08-03T02:02:43;18.40;99.90
53752;DHT22;41095;53.090;6.692;2022-08-03T02:05:11;18.40;99.90
53752;DHT22;41095;53.090;6.692;2022-08-03T02:07:39;18.40;99.90
53752;DHT22;41095;53.090;6.692;2022-08-03T02:10:06;18.40;99.90
53752;DHT22;41095;53.090;6.692;2022-08-03T02:12:36;18.40;99.90
53752;DHT22;41095;53.090;6.692;2022-08-03T02:15:03;18.40;99.90
53752;DHT22;41095;53.090;6.692;2022-08-03T02:17:31;18.40;99.90
53752;DHT22;41095;53.090;6.692;2022-08-03T02:19:59;18.30;99.90
53752;DHT22;41095;53.090;6.692;2022-08-03T02:22:27;18.30;99.90
53752;DHT22;41095;53.090;6.692;2022-08-03T02:24:53;18.40;99.90
53752;DHT22;41095;53.090;6.692;2022-08-03T02:27:22;18.30;99.90
53752;DHT22;41095;53.090;6.692;2022-08-03T02:29:53;18.30;99.90
53752;DHT22;41095;53.090;6.692;2022-08-03T02:32:27;18.30;99.90
53752;DHT22;41095;53.090;6.692;2022-08-03T02:34:55;18.30;99.90
53752;DHT22;41095;53.090;6.692;2022-08-03T02:37:26;18.30;99.90
53752;DHT22;41095;53.090;6.692;2022-08-03T02:39:57;18.30;99.90
53752;DHT22;41095;53.090;6.692;2022-08-03T02:42:24;18.30;99.90
53752;DHT22;41095;53.090;6.692;2022-08-03T02:44:53;18.30;99.90
53752;DHT22;41095;53.090;6.692;2022-08-03T02:47:20;18.30;99.90
53752;DHT22;41095;53.090;6.692;2022-08-03T02:49:48;18.30;99.90
53752;DHT22;41095;53.090;6.692;2022-08-03T02:52:16;18.30;99.90
53752;DHT22;41095;53.090;6.692;2022-08-03T02:54:43;18.30;99.90
53752;DHT22;41095;53.090;6.692;2022-08-03T02:57:11;18.20;99.90
53752;DHT22;41095;53.090;6.692;2022-08-03T02:59:38;18.20;99.90
53752;DHT22;41095;53.090;6.692;2022-08-03T03:02:04;18.20;99.90
53752;DHT22;41095;53.090;6.692;2022-08-03T03:04:32;18.20;99.90
53752;DHT22;41095;53.090;6.692;2022-08-03T03:06:59;18.20;99.90
53752;DHT22;41095;53.090;6.692;2022-08-03T03:09:24;18.30;99.90
53752;DHT22;41095;53.090;6.692;2022-08-03T03:11:51;18.20;99.90
53752;DHT22;41095;53.090;6.692;2022-08-03T03:14:18;18.20;99.90
53752;DHT22;41095;53.090;6.692;2022-08-03T03:16:45;18.20;99.90
53752;DHT22;41095;53.090;6.692;2022-08-03T03:19:13;18.20;99.90
53752;DHT22;41095;53.090;6.692;2022-08-03T03:21:42;18.20;99.90
53752;DHT22;41095;53.090;6.692;2022-08-03T03:24:08;18.20;99.90
53752;DHT22;41095;53.090;6.692;2022-08-03T03:26:35;18.10;99.90
53752;DHT22;41095;53.090;6.692;2022-08-03T03:29:01;18.10;99.90
53752;DHT22;41095;53.090;6.692;2022-08-03T03:31:28;18.10;99.90
53752;DHT22;41095;53.090;6.692;2022-08-03T03:33:57;18.10;99.90
53752;DHT22;41095;53.090;6.692;2022-08-03T03:36:23;18.10;99.90
53752;DHT22;41095;53.090;6.692;2022-08-03T03:38:48;18.10;99.90
53752;DHT22;41095;53.090;6.692;2022-08-03T03:41:14;18.10;99.90
53752;DHT22;41095;53.090;6.692;2022-08-03T03:43:40;18.10;99.90
53752;DHT22;41095;53.090;6.692;2022-08-03T03:46:06;18.10;99.90
53752;DHT22;41095;53.090;6.692;2022-08-03T03:48:32;18.00;99.90
53752;DHT22;41095;53.090;6.692;2022-08-03T03:50:59;18.00;99.90
53752;DHT22;41095;53.090;6.692;2022-08-03T03:53:25;18.00;99.90
53752;DHT22;41095;53.090;6.692;2022-08-03T03:55:51;18.00;99.90
53752;DHT22;41095;53.090;6.692;2022-08-03T03:58:19;18.00;99.90
53752;DHT22;41095;53.090;6.692;2022-08-03T04:00:45;18.00;99.90
53752;DHT22;41095;53.090;6.692;2022-08-03T04:03:11;18.00;99.90
53752;DHT22;41095;53.090;6.692;2022-08-03T04:05:37;18.00;99.90
53752;DHT22;41095;53.090;6.692;2022-08-03T04:08:21;17.90;99.90
53752;DHT22;41095;53.090;6.692;2022-08-03T04:11:13;18.00;99.90
53752;DHT22;41095;53.090;6.692;2022-08-03T04:13:54;18.00;99.90
53752;DHT22;41095;53.090;6.692;2022-08-03T04:16:24;18.00;99.90
53752;DHT22;41095;53.090;6.692;2022-08-03T04:18:56;18.00;99.90
53752;DHT22;41095;53.090;6.692;2022-08-03T04:21:24;18.00;99.90
53752;DHT22;41095;53.090;6.692;2022-08-03T04:23:53;18.00;99.90
53752;DHT22;41095;53.090;6.692;2022-08-03T04:26:21;18.10;99.90
53752;DHT22;41095;53.090;6.692;2022-08-03T04:28:48;18.10;99.90
53752;DHT22;41095;53.090;6.692;2022-08-03T04:31:19;18.10;99.90
53752;DHT22;41095;53.090;6.692;2022-08-03T04:33:45;18.20;99.90
53752;DHT22;41095;53.090;6.692;2022-08-03T04:36:15;18.20;99.90
53752;DHT22;41095;53.090;6.692;2022-08-03T04:39:07;18.20;99.90
53752;DHT22;41095;53.090;6.692;2022-08-03T04:41:34;18.30;99.90
53752;DHT22;41095;53.090;6.692;2022-08-03T04:44:01;18.30;99.90
53752;DHT22;41095;53.090;6.692;2022-08-03T04:46:32;18.30;99.90
53752;DHT22;41095;53.090;6.692;2022-08-03T04:48:59;18.40;99.90
53752;DHT22;41095;53.090;6.692;2022-08-03T04:51:25;18.40;99.90
53752;DHT22;41095;53.090;6.692;2022-08-03T04:53:51;18.40;99.90
53752;DHT22;41095;53.090;6.692;2022-08-03T04:56:17;18.50;99.90
53752;DHT22;41095;53.090;6.692;2022-08-03T04:58:42;18.50;99.90
53752;DHT22;41095;53.090;6.692;2022-08-03T05:01:08;18.60;99.90
53752;DHT22;41095;53.090;6.692;2022-08-03T05:03:34;18.60;99.90
53752;DHT22;41095;53.090;6.692;2022-08-03T05:06:00;18.70;99.90
53752;DHT22;41095;53.090;6.692;2022-08-03T05:08:26;18.70;99.90
53752;DHT22;41095;53.090;6.692;2022-08-03T05:10:51;18.70;99.90
53752;DHT22;41095;53.090;6.692;2022-08-03T05:13:17;18.80;99.90
53752;DHT22;41095;53.090;6.692;2022-08-03T05:15:43;18.80;99.90
53752;DHT22;41095;53.090;6.692;2022-08-03T05:18:08;18.90;99.90
53752;DHT22;41095;53.090;6.692;2022-08-03T05:20:34;18.90;99.90
53752;DHT22;41095;53.090;6.692;2022-08-03T05:23:00;19.00;99.90
53752;DHT22;41095;53.090;6.692;2022-08-03T05:25:28;19.10;99.90
53752;DHT22;41095;53.090;6.692;2022-08-03T05:27:54;19.10;99.90
53752;DHT22;41095;53.090;6.692;2022-08-03T05:30:20;19.20;99.90
53752;DHT22;41095;53.090;6.692;2022-08-03T05:32:45;19.30;99.90
53752;DHT22;41095;53.090;6.692;2022-08-03T05:35:11;19.40;99.90
53752;DHT22;41095;53.090;6.692;2022-08-03T05:37:37;19.50;99.90
53752;DHT22;41095;53.090;6.692;2022-08-03T05:40:03;19.50;99.90
53752;DHT22;41095;53.090;6.692;2022-08-03T05:42:29;19.60;99.90
53752;DHT22;41095;53.090;6.692;2022-08-03T05:44:55;19.70;99.90
53752;DHT22;41095;53.090;6.692;2022-08-03T05:47:21;19.70;99.90
53752;DHT22;41095;53.090;6.692;2022-08-03T05:49:46;19.80;99.90
53752;DHT22;41095;53.090;6.692;2022-08-03T05:52:12;19.80;99.90
53752;DHT22;41095;53.090;6.692;2022-08-03T05:54:38;19.90;99.90
53752;DHT22;41095;53.090;6.692;2022-08-03T05:57:04;20.00;99.90
53752;DHT22;41095;53.090;6.692;2022-08-03T05:59:29;20.10;99.90
53752;DHT22;41095;53.090;6.692;2022-08-03T06:01:55;20.20;99.90
53752;DHT22;41095;53.090;6.692;2022-08-03T06:04:21;20.20;99.90
53752;DHT22;41095;53.090;6.692;2022-08-03T06:06:46;20.30;99.90
53752;DHT22;41095;53.090;6.692;2022-08-03T06:09:12;20.40;99.90
53752;DHT22;41095;53.090;6.692;2022-08-03T06:11:39;20.50;99.90
53752;DHT22;41095;53.090;6.692;2022-08-03T06:14:05;20.60;99.90
53752;DHT22;41095;53.090;6.692;2022-08-03T06:16:31;20.60;99.90
53752;DHT22;41095;53.090;6.692;2022-08-03T06:18:58;20.60;99.90
53752;DHT22;41095;53.090;6.692;2022-08-03T06:21:23;20.60;99.90
53752;DHT22;41095;53.090;6.692;2022-08-03T06:23:49;20.70;99.90
53752;DHT22;41095;53.090;6.692;2022-08-03T06:26:15;20.70;99.90
53752;DHT22;41095;53.090;6.692;2022-08-03T06:28:43;20.70;99.90
53752;DHT22;41095;53.090;6.692;2022-08-03T06:31:09;20.80;99.90
53752;DHT22;41095;53.090;6.692;2022-08-03T06:33:34;20.80;99.90
53752;DHT22;41095;53.090;6.692;2022-08-03T06:36:00;20.90;99.90
53752;DHT22;41095;53.090;6.692;2022-08-03T06:38:25;21.00;99.90
53752;DHT22;41095;53.090;6.692;2022-08-03T06:40:51;21.10;99.90
53752;DHT22;41095;53.090;6.692;2022-08-03T06:43:17;21.30;99.90
53752;DHT22;41095;53.090;6.692;2022-08-03T06:45:42;21.40;99.90
53752;DHT22;41095;53.090;6.692;2022-08-03T06:48:11;21.60;99.90
53752;DHT22;41095;53.090;6.692;2022-08-03T06:50:39;22.30;99.90
53752;DHT22;41095;53.090;6.692;2022-08-03T06:53:06;23.10;99.90
53752;DHT22;41095;53.090;6.692;2022-08-03T06:55:33;24.10;99.90
53752;DHT22;41095;53.090;6.692;2022-08-03T06:57:59;25.00;99.90
53752;DHT22;41095;53.090;6.692;2022-08-03T07:00:25;25.80;99.90
53752;DHT22;41095;53.090;6.692;2022-08-03T07:02:52;26.30;99.90
53752;DHT22;41095;53.090;6.692;2022-08-03T07:05:19;26.60;99.90
53752;DHT22;41095;53.090;6.692;2022-08-03T07:07:45;26.80;99.90
53752;DHT22;41095;53.090;6.692;2022-08-03T07:10:11;26.80;99.90
53752;DHT22;41095;53.090;6.692;2022-08-03T07:12:37;26.90;99.90
53752;DHT22;41095;53.090;6.692;2022-08-03T07:15:05;27.40;99.90
53752;DHT22;41095;53.090;6.692;2022-08-03T07:17:34;27.70;99.90
53752;DHT22;41095;53.090;6.692;2022-08-03T07:20:01;28.00;99.90
53752;DHT22;41095;53.090;6.692;2022-08-03T07:22:28;28.30;99.90
53752;DHT22;41095;53.090;6.692;2022-08-03T07:24:54;28.80;99.90
53752;DHT22;41095;53.090;6.692;2022-08-03T07:27:19;28.90;99.90
53752;DHT22;41095;53.090;6.692;2022-08-03T07:29:45;29.00;99.90
53752;DHT22;41095;53.090;6.692;2022-08-03T07:32:11;29.40;99.90
53752;DHT22;41095;53.090;6.692;2022-08-03T07:34:37;29.70;99.40
53752;DHT22;41095;53.090;6.692;2022-08-03T07:37:02;29.80;99.00
53752;DHT22;41095;53.090;6.692;2022-08-03T07:39:28;30.30;98.50
53752;DHT22;41095;53.090;6.692;2022-08-03T07:41:54;30.60;97.90
53752;DHT22;41095;53.090;6.692;2022-08-03T07:44:19;30.60;97.20
53752;DHT22;41095;53.090;6.692;2022-08-03T07:46:46;31.10;95.40
53752;DHT22;41095;53.090;6.692;2022-08-03T07:49:11;31.30;96.40
53752;DHT22;41095;53.090;6.692;2022-08-03T07:51:38;31.20;95.90
53752;DHT22;41095;53.090;6.692;2022-08-03T07:54:03;31.20;95.80
53752;DHT22;41095;53.090;6.692;2022-08-03T07:56:29;31.60;95.60
53752;DHT22;41095;53.090;6.692;2022-08-03T07:58:55;31.80;95.20
53752;DHT22;41095;53.090;6.692;2022-08-03T08:01:21;31.90;94.60
53752;DHT22;41095;53.090;6.692;2022-08-03T08:03:48;32.80;93.10
53752;DHT22;41095;53.090;6.692;2022-08-03T08:06:14;32.80;93.30
53752;DHT22;41095;53.090;6.692;2022-08-03T08:08:40;32.80;93.30
53752;DHT22;41095;53.090;6.692;2022-08-03T08:11:06;33.00;93.00
53752;DHT22;41095;53.090;6.692;2022-08-03T08:13:33;32.90;92.70
53752;DHT22;41095;53.090;6.692;2022-08-03T08:20:54;32.80;91.80
53752;DHT22;41095;53.090;6.692;2022-08-03T08:25:52;33.60;91.50
53752;DHT22;41095;53.090;6.692;2022-08-03T08:28:19;33.70;90.90
53752;DHT22;41095;53.090;6.692;2022-08-03T08:30:44;33.40;91.30
53752;DHT22;41095;53.090;6.692;2022-08-03T08:33:10;33.90;91.50
53752;DHT22;41095;53.090;6.692;2022-08-03T08:35:36;33.60;91.00
53752;DHT22;41095;53.090;6.692;2022-08-03T08:38:01;33.40;90.70
53752;DHT22;41095;53.090;6.692;2022-08-03T08:40:27;33.60;90.60
53752;DHT22;41095;53.090;6.692;2022-08-03T08:42:53;33.60;90.30
53752;DHT22;41095;53.090;6.692;2022-08-03T08:45:19;33.40;90.20
53752;DHT22;41095;53.090;6.692;2022-08-03T08:47:46;33.50;90.10
53752;DHT22;41095;53.090;6.692;2022-08-03T08:50:13;33.80;90.20
53752;DHT22;41095;53.090;6.692;2022-08-03T08:52:40;33.30;90.10
53752;DHT22;41095;53.090;6.692;2022-08-03T08:55:09;33.40;90.30
53752;DHT22;41095;53.090;6.692;2022-08-03T08:57:46;33.60;90.30
53752;DHT22;41095;53.090;6.692;2022-08-03T09:00:13;34.00;88.40
53752;DHT22;41095;53.090;6.692;2022-08-03T09:02:41;33.60;89.90
53752;DHT22;41095;53.090;6.692;2022-08-03T09:05:13;33.70;90.00
53752;DHT22;41095;53.090;6.692;2022-08-03T09:07:40;33.90;89.00
53752;DHT22;41095;53.090;6.692;2022-08-03T09:10:08;33.90;89.50
53752;DHT22;41095;53.090;6.692;2022-08-03T09:12:52;33.80;89.10
53752;DHT22;41095;53.090;6.692;2022-08-03T09:15:23;33.90;87.30
53752;DHT22;41095;53.090;6.692;2022-08-03T09:17:50;33.90;88.50
53752;DHT22;41095;53.090;6.692;2022-08-03T09:20:18;34.20;88.60
53752;DHT22;41095;53.090;6.692;2022-08-03T09:30:40;33.90;85.10
53752;DHT22;41095;53.090;6.692;2022-08-03T09:33:12;33.60;86.30
53752;DHT22;41095;53.090;6.692;2022-08-03T09:35:45;32.00;85.30
53752;DHT22;41095;53.090;6.692;2022-08-03T09:38:22;33.30;86.20
53752;DHT22;41095;53.090;6.692;2022-08-03T09:40:50;33.40;87.60
53752;DHT22;41095;53.090;6.692;2022-08-03T09:43:17;33.60;87.70
53752;DHT22;41095;53.090;6.692;2022-08-03T09:45:43;33.80;88.30
53752;DHT22;41095;53.090;6.692;2022-08-03T09:48:28;34.10;87.80
53752;DHT22;41095;53.090;6.692;2022-08-03T09:50:56;34.40;85.80
53752;DHT22;41095;53.090;6.692;2022-08-03T09:53:23;34.20;87.40
53752;DHT22;41095;53.090;6.692;2022-08-03T09:56:00;34.00;86.80
53752;DHT22;41095;53.090;6.692;2022-08-03T09:58:28;33.60;86.00
53752;DHT22;41095;53.090;6.692;2022-08-03T10:01:00;33.70;87.30
53752;DHT22;41095;53.090;6.692;2022-08-03T10:03:31;33.70;86.80
53752;DHT22;41095;53.090;6.692;2022-08-03T10:05:58;33.50;85.40
53752;DHT22;41095;53.090;6.692;2022-08-03T10:08:24;33.60;86.40
53752;DHT22;41095;53.090;6.692;2022-08-03T10:10:50;33.80;86.90
53752;DHT22;41095;53.090;6.692;2022-08-03T10:13:21;34.10;86.10
53752;DHT22;41095;53.090;6.692;2022-08-03T10:15:48;34.20;85.50
53752;DHT22;41095;53.090;6.692;2022-08-03T10:18:14;34.10;85.40
53752;DHT22;41095;53.090;6.692;2022-08-03T10:20:48;34.50;84.70
53752;DHT22;41095;53.090;6.692;2022-08-03T10:23:16;34.70;84.30
53752;DHT22;41095;53.090;6.692;2022-08-03T10:25:45;34.60;84.70
53752;DHT22;41095;53.090;6.692;2022-08-03T10:28:15;34.80;85.50
53752;DHT22;41095;53.090;6.692;2022-08-03T10:30:43;34.80;84.50
53752;DHT22;41095;53.090;6.692;2022-08-03T10:33:23;34.80;84.00
53752;DHT22;41095;53.090;6.692;2022-08-03T10:35:53;34.70;83.80
53752;DHT22;41095;53.090;6.692;2022-08-03T10:38:28;34.30;84.80
53752;DHT22;41095;53.090;6.692;2022-08-03T10:40:55;34.10;83.40
53752;DHT22;41095;53.090;6.692;2022-08-03T10:43:26;33.50;85.20
53752;DHT22;41095;53.090;6.692;2022-08-03T10:45:52;33.20;85.00
53752;DHT22;41095;53.090;6.692;2022-08-03T10:48:20;32.90;85.90
53752;DHT22;41095;53.090;6.692;2022-08-03T10:50:47;32.70;85.60
53752;DHT22;41095;53.090;6.692;2022-08-03T10:53:14;32.70;85.80
53752;DHT22;41095;53.090;6.692;2022-08-03T10:55:44;32.40;85.60
53752;DHT22;41095;53.090;6.692;2022-08-03T11:01:04;31.70;87.30
53752;DHT22;41095;53.090;6.692;2022-08-03T11:03:30;31.50;87.30
53752;DHT22;41095;53.090;6.692;2022-08-03T11:06:23;31.10;87.40
53752;DHT22;41095;53.090;6.692;2022-08-03T11:11:39;30.80;89.70
53752;DHT22;41095;53.090;6.692;2022-08-03T11:16:44;30.50;90.20
53752;DHT22;41095;53.090;6.692;2022-08-03T11:19:17;30.30;90.80
53752;DHT22;41095;53.090;6.692;2022-08-03T11:21:52;30.20;90.40
53752;DHT22;41095;53.090;6.692;2022-08-03T11:27:22;29.90;91.20
53752;DHT22;41095;53.090;6.692;2022-08-03T11:30:08;30.10;91.60
53752;DHT22;41095;53.090;6.692;2022-08-03T11:35:16;30.10;91.00
53752;DHT22;41095;53.090;6.692;2022-08-03T11:40:48;30.10;91.60
53752;DHT22;41095;53.090;6.692;2022-08-03T11:46:00;30.20;91.50
53752;DHT22;41095;53.090;6.692;2022-08-03T11:48:33;30.10;90.70
53752;DHT22;41095;53.090;6.692;2022-08-03T11:51:00;30.20;90.80
53752;DHT22;41095;53.090;6.692;2022-08-03T11:53:26;30.30;91.20
53752;DHT22;41095;53.090;6.692;2022-08-03T11:55:52;30.30;90.80
53752;DHT22;41095;53.090;6.692;2022-08-03T11:58:22;30.30;90.80
53752;DHT22;41095;53.090;6.692;2022-08-03T12:00:48;30.50;90.70
53752;DHT22;41095;53.090;6.692;2022-08-03T12:03:16;30.60;90.60
53752;DHT22;41095;53.090;6.692;2022-08-03T12:05:50;30.70;90.20
53752;DHT22;41095;53.090;6.692;2022-08-03T12:10:54;30.90;90.50
53752;DHT22;41095;53.090;6.692;2022-08-03T12:13:21;31.00;90.30
53752;DHT22;41095;53.090;6.692;2022-08-03T12:15:54;31.10;90.20
53752;DHT22;41095;53.090;6.692;2022-08-03T12:18:22;31.10;90.20
53752;DHT22;41095;53.090;6.692;2022-08-03T12:20:49;31.20;90.10
53752;DHT22;41095;53.090;6.692;2022-08-03T12:23:16;31.30;89.70
53752;DHT22;41095;53.090;6.692;2022-08-03T12:25:43;31.40;89.70
53752;DHT22;41095;53.090;6.692;2022-08-03T12:28:17;31.50;87.80
53752;DHT22;41095;53.090;6.692;2022-08-03T12:30:46;31.50;87.40
53752;DHT22;41095;53.090;6.692;2022-08-03T12:35:38;31.30;86.20
53752;DHT22;41095;53.090;6.692;2022-08-03T12:38:04;31.40;86.70
53752;DHT22;41095;53.090;6.692;2022-08-03T12:40:30;31.50;86.40
53752;DHT22;41095;53.090;6.692;2022-08-03T12:42:56;31.50;86.20
53752;DHT22;41095;53.090;6.692;2022-08-03T12:45:23;31.50;85.80
53752;DHT22;41095;53.090;6.692;2022-08-03T12:47:57;31.50;84.40
53752;DHT22;41095;53.090;6.692;2022-08-03T12:50:28;31.60;84.50
53752;DHT22;41095;53.090;6.692;2022-08-03T12:52:55;31.50;83.90
53752;DHT22;41095;53.090;6.692;2022-08-03T12:55:21;31.50;84.30
53752;DHT22;41095;53.090;6.692;2022-08-03T12:57:48;31.50;84.70
53752;DHT22;41095;53.090;6.692;2022-08-03T13:00:16;31.60;85.60
53752;DHT22;41095;53.090;6.692;2022-08-03T13:02:42;31.70;85.30
53752;DHT22;41095;53.090;6.692;2022-08-03T13:05:13;31.70;84.30
53752;DHT22;41095;53.090;6.692;2022-08-03T13:07:43;31.70;84.60
53752;DHT22;41095;53.090;6.692;2022-08-03T13:10:11;31.80;83.20
53752;DHT22;41095;53.090;6.692;2022-08-03T13:12:49;31.90;83.10
53752;DHT22;41095;53.090;6.692;2022-08-03T13:15:15;32.00;82.90
53752;DHT22;41095;53.090;6.692;2022-08-03T13:17:41;32.00;83.00
53752;DHT22;41095;53.090;6.692;2022-08-03T13:20:07;32.00;81.10
53752;DHT22;41095;53.090;6.692;2022-08-03T13:22:33;31.90;81.20
53752;DHT22;41095;53.090;6.692;2022-08-03T13:24:59;31.90;81.30
53752;DHT22;41095;53.090;6.692;2022-08-03T13:27:28;31.90;79.10
53752;DHT22;41095;53.090;6.692;2022-08-03T13:29:54;31.80;79.60
53752;DHT22;41095;53.090;6.692;2022-08-03T13:32:21;31.80;80.20
53752;DHT22;41095;53.090;6.692;2022-08-03T13:34:48;31.80;80.20
53752;DHT22;41095;53.090;6.692;2022-08-03T13:37:14;31.80;80.10
53752;DHT22;41095;53.090;6.692;2022-08-03T13:39:40;31.90;80.20
53752;DHT22;41095;53.090;6.692;2022-08-03T13:42:06;32.00;80.80
53752;DHT22;41095;53.090;6.692;2022-08-03T13:44:32;31.90;80.90
53752;DHT22;41095;53.090;6.692;2022-08-03T13:46:58;32.00;81.10
53752;DHT22;41095;53.090;6.692;2022-08-03T13:49:26;32.00;81.80
53752;DHT22;41095;53.090;6.692;2022-08-03T13:51:51;31.90;81.10
53752;DHT22;41095;53.090;6.692;2022-08-03T13:54:17;32.00;81.70
53752;DHT22;41095;53.090;6.692;2022-08-03T13:56:44;32.00;81.60
53752;DHT22;41095;53.090;6.692;2022-08-03T13:59:17;31.90;81.30
53752;DHT22;41095;53.090;6.692;2022-08-03T14:01:45;31.90;81.90
53752;DHT22;41095;53.090;6.692;2022-08-03T14:04:11;31.90;82.20
53752;DHT22;41095;53.090;6.692;2022-08-03T14:06:37;31.80;81.80
53752;DHT22;41095;53.090;6.692;2022-08-03T14:09:03;31.80;82.10
53752;DHT22;41095;53.090;6.692;2022-08-03T14:11:28;31.90;81.50
53752;DHT22;41095;53.090;6.692;2022-08-03T14:13:54;32.00;82.10
53752;DHT22;41095;53.090;6.692;2022-08-03T14:16:20;32.10;82.10
53752;DHT22;41095;53.090;6.692;2022-08-03T14:18:46;32.00;81.30
53752;DHT22;41095;53.090;6.692;2022-08-03T14:21:12;32.10;80.80
53752;DHT22;41095;53.090;6.692;2022-08-03T14:23:38;32.10;80.80
53752;DHT22;41095;53.090;6.692;2022-08-03T14:26:07;32.10;81.10
53752;DHT22;41095;53.090;6.692;2022-08-03T14:28:34;32.20;81.10
53752;DHT22;41095;53.090;6.692;2022-08-03T14:31:00;32.30;81.90
53752;DHT22;41095;53.090;6.692;2022-08-03T14:33:26;32.40;81.20
53752;DHT22;41095;53.090;6.692;2022-08-03T14:35:55;32.30;80.00
53752;DHT22;41095;53.090;6.692;2022-08-03T14:38:21;32.30;79.40
53752;DHT22;41095;53.090;6.692;2022-08-03T14:40:48;32.10;79.20
53752;DHT22;41095;53.090;6.692;2022-08-03T14:43:15;31.90;79.40
53752;DHT22;41095;53.090;6.692;2022-08-03T14:45:42;31.90;79.70
53752;DHT22;41095;53.090;6.692;2022-08-03T14:48:08;32.10;80.40
53752;DHT22;41095;53.090;6.692;2022-08-03T14:50:34;32.00;79.60
53752;DHT22;41095;53.090;6.692;2022-08-03T14:52:59;31.70;79.20
53752;DHT22;41095;53.090;6.692;2022-08-03T14:55:25;31.70;79.20
53752;DHT22;41095;53.090;6.692;2022-08-03T14:57:51;31.80;79.80
53752;DHT22;41095;53.090;6.692;2022-08-03T15:00:16;31.90;80.40
53752;DHT22;41095;53.090;6.692;2022-08-03T15:02:42;31.90;79.80
53752;DHT22;41095;53.090;6.692;2022-08-03T15:05:08;31.90;79.10
53752;DHT22;41095;53.090;6.692;2022-08-03T15:07:37;31.90;79.90
53752;DHT22;41095;53.090;6.692;2022-08-03T15:10:03;31.80;79.80
53752;DHT22;41095;53.090;6.692;2022-08-03T15:12:29;31.70;79.80
53752;DHT22;41095;53.090;6.692;2022-08-03T15:14:54;31.70;80.20
53752;DHT22;41095;53.090;6.692;2022-08-03T15:17:20;31.60;80.50
53752;DHT22;41095;53.090;6.692;2022-08-03T15:19:46;31.90;79.90
53752;DHT22;41095;53.090;6.692;2022-08-03T15:22:12;31.50;80.20
53752;DHT22;41095;53.090;6.692;2022-08-03T15:24:40;31.50;80.40
53752;DHT22;41095;53.090;6.692;2022-08-03T15:27:06;31.40;80.60
53752;DHT22;41095;53.090;6.692;2022-08-03T15:29:31;31.40;80.00
53752;DHT22;41095;53.090;6.692;2022-08-03T15:31:57;31.20;80.60
53752;DHT22;41095;53.090;6.692;2022-08-03T15:34:23;31.20;81.10
53752;DHT22;41095;53.090;6.692;2022-08-03T15:36:48;31.20;80.60
53752;DHT22;41095;53.090;6.692;2022-08-03T15:39:14;31.20;80.70
53752;DHT22;41095;53.090;6.692;2022-08-03T15:41:40;31.20;80.80
53752;DHT22;41095;53.090;6.692;2022-08-03T15:44:05;31.20;81.50
53752;DHT22;41095;53.090;6.692;2022-08-03T15:46:31;31.30;80.70
53752;DHT22;41095;53.090;6.692;2022-08-03T15:48:57;31.40;81.20
53752;DHT22;41095;53.090;6.692;2022-08-03T15:51:23;31.40;80.90
53752;DHT22;41095;53.090;6.692;2022-08-03T15:53:48;31.50;81.30
53752;DHT22;41095;53.090;6.692;2022-08-03T15:56:14;31.40;80.10
53752;DHT22;41095;53.090;6.692;2022-08-03T15:58:40;31.50;80.10
53752;DHT22;41095;53.090;6.692;2022-08-03T16:01:06;31.50;80.30
53752;DHT22;41095;53.090;6.692;2022-08-03T16:03:32;31.50;81.30
53752;DHT22;41095;53.090;6.692;2022-08-03T16:06:06;31.40;80.70
53752;DHT22;41095;53.090;6.692;2022-08-03T16:08:32;31.30;79.70
53752;DHT22;41095;53.090;6.692;2022-08-03T16:10:59;31.30;80.30
53752;DHT22;41095;53.090;6.692;2022-08-03T16:13:26;31.10;80.30
53752;DHT22;41095;53.090;6.692;2022-08-03T16:15:52;31.00;80.70
53752;DHT22;41095;53.090;6.692;2022-08-03T16:18:18;30.90;81.40
53752;DHT22;41095;53.090;6.692;2022-08-03T16:20:45;30.80;80.90
53752;DHT22;41095;53.090;6.692;2022-08-03T16:23:12;30.70;81.70
53752;DHT22;41095;53.090;6.692;2022-08-03T16:25:39;30.70;81.10
53752;DHT22;41095;53.090;6.692;2022-08-03T16:28:06;30.70;80.70